createdAt,value
2023-04-17T00:00:16.135Z,23.00
2023-04-17T00:02:42.804Z,22.50
2023-04-17T00:05:09.477Z,20.95
2023-04-17T00:07:36.489Z,21.80
2023-04-17T00:10:03.036Z,21.48
2023-04-17T00:12:30.750Z,21.35
2023-04-17T00:14:57.188Z,18.58
2023-04-17T00:17:23.768Z,22.65
2023-04-17T00:19:50.195Z,21.52
2023-04-17T00:22:16.678Z,20.58
2023-04-17T00:24:43.086Z,18.15
2023-04-17T00:27:09.556Z,19.23
2023-04-17T00:29:37.309Z,18.88
2023-04-17T00:32:04.022Z,23.02
2023-04-17T00:34:30.503Z,19.92
2023-04-17T00:36:57.050Z,21.23
2023-04-17T00:39:23.469Z,20.85
2023-04-17T00:41:49.887Z,20.75
2023-04-17T00:44:16.399Z,19.27
2023-04-17T00:46:44.139Z,19.98
2023-04-17T00:49:12.208Z,19.92
2023-04-17T00:51:38.805Z,17.80
2023-04-17T00:54:05.718Z,19.00
2023-04-17T00:56:32.244Z,19.08
2023-04-17T00:59:01.436Z,17.98
2023-04-17T01:01:27.902Z,19.35
2023-04-17T01:03:56.317Z,17.95
2023-04-17T01:06:22.866Z,17.48
2023-04-17T01:08:49.428Z,17.98
2023-04-17T01:11:16.019Z,17.40
2023-04-17T01:13:45.957Z,18.40
2023-04-17T01:16:12.402Z,17.92
2023-04-17T01:18:39.024Z,16.85
2023-04-17T01:21:06.809Z,19.15
2023-04-17T01:23:44.666Z,17.00
2023-04-17T01:26:16.899Z,18.23
2023-04-17T01:28:43.379Z,16.50
2023-04-17T01:31:14.759Z,15.48
2023-04-17T01:33:41.255Z,17.10
2023-04-17T01:36:08.072Z,17.15
2023-04-17T01:38:34.562Z,20.25
2023-04-17T01:41:01.011Z,18.15
2023-04-17T01:43:28.831Z,18.02
2023-04-17T01:45:55.300Z,17.02
2023-04-17T01:48:21.709Z,16.13
2023-04-17T01:50:48.308Z,14.95
2023-04-17T01:53:14.668Z,15.68
2023-04-17T01:55:41.103Z,18.23
2023-04-17T01:58:07.532Z,16.63
2023-04-17T02:00:35.841Z,16.77
2023-04-17T02:03:02.475Z,16.45
2023-04-17T02:05:29.043Z,18.63
2023-04-17T02:07:55.451Z,16.80
2023-04-17T02:10:21.920Z,15.60
2023-04-17T02:12:48.305Z,17.20
2023-04-17T02:15:14.891Z,17.55
2023-04-17T02:17:42.694Z,18.40
2023-04-17T02:20:11.420Z,19.80
2023-04-17T02:22:37.840Z,19.73
2023-04-17T02:25:04.868Z,18.88
2023-04-17T02:27:32.630Z,19.67
2023-04-17T02:29:59.091Z,18.52
2023-04-17T02:32:25.615Z,20.75
2023-04-17T02:34:54.106Z,21.13
2023-04-17T02:37:20.673Z,21.67
2023-04-17T02:39:47.533Z,20.70
2023-04-17T02:42:14.075Z,20.25
2023-04-17T02:44:41.425Z,21.60
2023-04-17T02:47:08.037Z,21.50
2023-04-17T02:49:35.023Z,23.10
2023-04-17T02:52:02.929Z,23.08
2023-04-17T02:54:29.503Z,22.70
2023-04-17T02:56:56.078Z,24.55
2023-04-17T02:59:22.569Z,20.48
2023-04-17T03:01:56.376Z,28.88
2023-04-17T03:04:23.102Z,21.83
2023-04-17T03:06:52.458Z,22.38
2023-04-17T03:09:20.448Z,21.98
2023-04-17T03:11:48.089Z,19.02
2023-04-17T03:14:19.352Z,20.05
2023-04-17T03:16:53.008Z,23.67
2023-04-17T03:19:19.897Z,23.30
2023-04-17T03:21:52.201Z,22.55
2023-04-17T03:24:20.290Z,22.35
2023-04-17T03:26:49.319Z,25.60
2023-04-17T03:29:20.737Z,20.10
2023-04-17T03:31:53.246Z,22.27
2023-04-17T03:34:21.309Z,24.30
2023-04-17T03:36:48.994Z,24.35
2023-04-17T03:39:17.582Z,21.17
2023-04-17T03:41:45.370Z,21.02
2023-04-17T03:44:18.350Z,22.98
2023-04-17T03:46:51.046Z,22.88
2023-04-17T03:49:19.908Z,21.98
2023-04-17T03:51:46.428Z,23.05
2023-04-17T03:54:19.708Z,21.90
2023-04-17T03:56:51.763Z,21.10
2023-04-17T03:59:24.493Z,23.05
2023-04-17T04:01:51.067Z,21.83
2023-04-17T04:04:22.094Z,22.95
2023-04-17T04:06:52.955Z,21.80
2023-04-17T04:09:22.618Z,22.90
2023-04-17T04:11:53.544Z,22.80
2023-04-17T04:14:22.264Z,22.55
2023-04-17T04:16:51.952Z,23.27
2023-04-17T04:19:20.003Z,24.08
2023-04-17T04:21:52.583Z,22.85
2023-04-17T04:24:20.912Z,22.42
2023-04-17T04:26:54.965Z,26.67
2023-04-17T04:29:21.917Z,24.05
2023-04-17T04:31:53.801Z,25.48
2023-04-17T04:34:23.132Z,25.13
2023-04-17T04:36:52.313Z,27.23
2023-04-17T04:39:28.126Z,24.52
2023-04-17T04:41:56.170Z,27.65
2023-04-17T04:44:28.819Z,25.08
2023-04-17T04:46:57.717Z,26.20
2023-04-17T04:49:25.409Z,21.27
2023-04-17T04:51:52.123Z,24.88
2023-04-17T04:54:19.993Z,26.33
2023-04-17T04:56:51.580Z,26.05
2023-04-17T04:59:19.551Z,27.08
2023-04-17T05:01:54.824Z,24.58
2023-04-17T05:04:23.206Z,26.98
2023-04-17T05:06:55.192Z,24.35
2023-04-17T05:09:22.659Z,27.52
2023-04-17T05:11:52.656Z,24.15
2023-04-17T05:14:20.640Z,24.63
2023-04-17T05:16:48.324Z,27.20
2023-04-17T05:19:21.686Z,23.38
2023-04-17T05:21:54.294Z,25.40
2023-04-17T05:24:21.937Z,26.73
2023-04-17T05:26:51.244Z,27.83
2023-04-17T05:29:19.969Z,23.73
2023-04-17T05:31:51.018Z,23.42
2023-04-17T05:34:40.183Z,23.40
2023-04-17T05:37:07.665Z,20.83
2023-04-17T05:39:34.156Z,23.30
2023-04-17T05:42:01.560Z,23.48
2023-04-17T05:44:31.614Z,22.13
2023-04-17T05:46:59.520Z,22.42
2023-04-17T05:49:26.419Z,21.77
2023-04-17T05:51:53.316Z,20.02
2023-04-17T05:54:21.739Z,19.77
2023-04-17T05:56:52.359Z,21.95
2023-04-17T05:59:22.184Z,20.27
2023-04-17T06:01:49.790Z,21.02
2023-04-17T06:04:21.698Z,19.88
2023-04-17T06:06:54.177Z,20.20
2023-04-17T06:09:21.430Z,19.50
2023-04-17T06:11:51.904Z,21.48
2023-04-17T06:14:20.750Z,24.08
2023-04-17T06:16:50.747Z,21.75
2023-04-17T06:19:27.425Z,20.67
2023-04-17T06:24:20.432Z,22.77
2023-04-17T06:26:50.928Z,26.02
2023-04-17T06:29:23.367Z,23.13
2023-04-17T06:31:50.467Z,24.35
2023-04-17T06:34:22.298Z,25.17
2023-04-17T06:36:53.558Z,23.08
2023-04-17T06:39:20.912Z,23.13
2023-04-17T06:41:53.321Z,25.85
2023-04-17T06:44:26.410Z,22.83
2023-04-17T06:46:54.893Z,26.15
2023-04-17T06:49:21.545Z,26.20
2023-04-17T06:51:51.166Z,26.25
2023-04-17T06:54:23.966Z,26.00
2023-04-17T06:56:50.634Z,25.30
2023-04-17T06:59:23.287Z,26.08
2023-04-17T07:01:51.939Z,26.63
2023-04-17T07:04:21.714Z,24.17
2023-04-17T07:06:48.292Z,26.10
2023-04-17T07:09:22.135Z,24.90
2023-04-17T07:11:50.747Z,23.65
2023-04-17T07:14:20.173Z,23.75
2023-04-17T07:16:52.646Z,24.75
2023-04-17T07:19:19.598Z,25.85
2023-04-17T07:21:48.515Z,25.45
2023-04-17T07:24:22.358Z,27.30
2023-04-17T07:26:52.288Z,25.30
2023-04-17T07:29:20.795Z,21.02
2023-04-17T07:31:53.165Z,21.92
2023-04-17T07:34:19.944Z,21.50
2023-04-17T07:36:50.393Z,24.33
2023-04-17T07:39:21.723Z,20.70
2023-04-17T07:41:50.007Z,21.95
2023-04-17T07:44:22.570Z,23.77
2023-04-17T07:46:51.842Z,21.42
2023-04-17T07:49:21.419Z,21.60
2023-04-17T07:51:49.780Z,20.88
2023-04-17T07:54:21.010Z,20.77
2023-04-17T07:56:50.949Z,23.25
2023-04-17T07:59:19.581Z,23.55
2023-04-17T08:01:50.490Z,23.05
2023-04-17T08:04:21.215Z,19.90
2023-04-17T08:06:50.638Z,23.25
2023-04-17T08:09:20.691Z,20.55
2023-04-17T08:11:58.073Z,26.00
2023-04-17T08:14:25.284Z,22.60
2023-04-17T08:16:52.342Z,19.88
2023-04-17T08:19:20.725Z,19.27
2023-04-17T08:22:00.521Z,21.95
2023-04-17T08:24:27.138Z,19.45
2023-04-17T08:26:55.012Z,18.58
2023-04-17T08:29:21.478Z,16.98
2023-04-17T08:31:53.388Z,20.02
2023-04-17T08:34:24.045Z,19.98
2023-04-17T08:36:50.540Z,17.85
2023-04-17T08:39:19.331Z,19.77
2023-04-17T08:41:54.699Z,22.50
2023-04-17T08:44:22.565Z,18.83
2023-04-17T08:46:49.860Z,18.52
2023-04-17T08:49:16.512Z,20.40
2023-04-17T08:51:42.930Z,17.33
2023-04-17T08:54:09.356Z,17.20
2023-04-17T08:56:35.824Z,21.55
2023-04-17T08:59:02.222Z,19.35
2023-04-17T09:01:30.057Z,17.50
2023-04-17T09:03:56.726Z,18.85
2023-04-17T09:06:23.341Z,18.42
2023-04-17T09:08:57.529Z,18.05
2023-04-17T09:11:24.364Z,16.88
2023-04-17T09:13:50.758Z,19.83
2023-04-17T09:16:17.216Z,19.95
2023-04-17T09:18:45.318Z,17.20
2023-04-17T09:21:12.702Z,17.27
2023-04-17T09:23:46.873Z,17.48
2023-04-17T09:26:14.986Z,17.85
2023-04-17T09:28:41.993Z,15.77
2023-04-17T09:31:25.067Z,16.83
2023-04-17T09:33:57.256Z,17.95
2023-04-17T09:36:23.892Z,16.60
2023-04-17T09:38:50.438Z,19.48
2023-04-17T09:41:24.204Z,16.75
2023-04-17T09:43:51.596Z,13.85
2023-04-17T09:46:31.285Z,17.20
2023-04-17T09:49:00.793Z,15.13
2023-04-17T09:51:27.972Z,16.83
2023-04-17T09:53:55.252Z,15.07
2023-04-17T09:56:21.662Z,15.60
2023-04-17T09:58:48.540Z,15.00
2023-04-17T10:01:15.670Z,14.35
2023-04-17T10:03:43.201Z,13.48
2023-04-17T10:06:12.140Z,14.30
2023-04-17T10:08:38.994Z,12.95
2023-04-17T10:11:07.194Z,13.25
2023-04-17T10:13:36.701Z,12.90
2023-04-17T10:16:03.256Z,13.15
2023-04-17T10:18:29.690Z,12.68
2023-04-17T10:20:56.372Z,11.40
2023-04-17T10:23:28.949Z,13.95
2023-04-17T10:26:44.563Z,13.07
2023-04-17T10:29:11.112Z,13.35
2023-04-17T10:32:23.680Z,11.27
2023-04-17T10:34:50.186Z,11.52
2023-04-17T10:37:16.689Z,15.57
2023-04-17T10:39:51.013Z,13.02
2023-04-17T10:42:19.406Z,12.80
2023-04-17T10:44:46.285Z,13.75
2023-04-17T10:49:49.681Z,13.57
2023-04-17T10:52:39.215Z,12.23
2023-04-17T10:55:08.949Z,15.07
2023-04-17T10:57:56.082Z,12.88
2023-04-17T11:00:30.088Z,11.70
2023-04-17T11:02:56.709Z,12.90
2023-04-17T11:05:23.230Z,12.98
2023-04-17T11:07:50.035Z,11.07
2023-04-17T11:10:18.747Z,14.45
2023-04-17T11:12:46.334Z,12.65
2023-04-17T11:15:12.935Z,12.10
2023-04-17T11:17:45.343Z,12.65
2023-04-17T11:20:12.181Z,9.95
2023-04-17T11:22:39.026Z,14.27
2023-04-17T11:25:06.459Z,14.30
2023-04-17T11:27:34.239Z,13.60
2023-04-17T11:30:00.653Z,14.30
2023-04-17T11:32:27.154Z,14.13
2023-04-17T11:34:53.798Z,13.57
2023-04-17T11:37:20.236Z,13.07
2023-04-17T11:39:46.748Z,13.05
2023-04-17T11:42:13.154Z,12.73
2023-04-17T11:44:43.804Z,15.40
2023-04-17T11:47:10.345Z,13.60
2023-04-17T11:49:39.005Z,12.43
2023-04-17T11:52:05.951Z,12.88
2023-04-17T11:54:35.568Z,13.68
2023-04-17T11:57:03.444Z,11.85
2023-04-17T11:59:30.814Z,12.38
2023-04-17T12:01:58.684Z,13.02
2023-04-17T12:04:28.410Z,12.93
2023-04-17T12:06:55.002Z,12.55
2023-04-17T12:09:21.717Z,13.27
2023-04-17T12:11:48.178Z,12.85
2023-04-17T12:14:14.946Z,10.40
2023-04-17T12:16:41.537Z,10.60
2023-04-17T12:19:09.280Z,11.32
2023-04-17T12:21:35.764Z,10.55
2023-04-17T12:24:02.216Z,11.88
2023-04-17T12:26:28.671Z,10.18
2023-04-17T12:28:56.663Z,10.57
2023-04-17T12:31:23.085Z,14.43
2023-04-17T12:33:49.581Z,11.15
2023-04-17T12:36:17.539Z,11.35
2023-04-17T12:38:44.145Z,12.40
2023-04-17T12:41:10.600Z,12.35
2023-04-17T12:43:37.036Z,11.40
2023-04-17T12:46:03.586Z,10.65
2023-04-17T12:48:32.672Z,9.63
2023-04-17T12:50:59.490Z,12.05
2023-04-17T12:53:27.274Z,10.45
2023-04-17T12:55:53.923Z,10.27
2023-04-17T12:58:20.323Z,10.88
2023-04-17T13:00:47.131Z,10.90
2023-04-17T13:03:13.635Z,11.27
2023-04-17T13:05:40.262Z,11.77
2023-04-17T13:08:06.768Z,12.48
2023-04-17T13:10:34.526Z,13.10
2023-04-17T13:13:00.943Z,11.98
2023-04-17T13:15:27.670Z,13.00
2023-04-17T13:17:54.222Z,14.82
2023-04-17T13:20:20.805Z,15.63
2023-04-17T13:22:47.250Z,13.73
2023-04-17T13:25:13.684Z,12.27
2023-04-17T13:27:41.475Z,13.25
2023-04-17T13:30:08.985Z,14.73
2023-04-17T13:32:35.563Z,12.90
2023-04-17T13:35:02.119Z,13.85
2023-04-17T13:37:28.646Z,12.63
2023-04-17T13:39:56.176Z,11.68
2023-04-17T13:42:22.885Z,13.10
2023-04-17T13:44:50.620Z,13.38
2023-04-17T13:47:17.092Z,13.95
2023-04-17T13:49:43.516Z,13.10
2023-04-17T13:52:10.092Z,13.05
2023-04-17T13:54:36.456Z,12.70
2023-04-17T13:57:03.216Z,12.48
2023-04-17T13:59:29.629Z,12.63
2023-04-17T14:01:57.489Z,12.52
2023-04-17T14:04:24.298Z,13.60
2023-04-17T14:06:51.037Z,13.52
2023-04-17T14:09:17.864Z,14.32
2023-04-17T14:11:44.568Z,13.95
2023-04-17T14:14:11.004Z,13.02
2023-04-17T14:16:38.066Z,13.15
2023-04-17T14:19:13.181Z,13.48
2023-04-17T14:21:40.191Z,13.95
2023-04-17T14:24:06.640Z,12.25
2023-04-17T14:26:33.264Z,14.02
2023-04-17T14:28:59.762Z,14.75
2023-04-17T14:31:26.254Z,14.07
2023-04-17T14:33:52.792Z,13.55
2023-04-17T14:36:20.601Z,20.50
2023-04-17T14:38:47.058Z,18.02
2023-04-17T14:41:13.547Z,12.05
2023-04-17T14:43:39.982Z,12.82
2023-04-17T14:46:06.608Z,14.10
2023-04-17T14:48:38.487Z,12.32
2023-04-17T14:51:19.347Z,14.98
2023-04-17T14:53:50.601Z,14.27
2023-04-17T14:56:22.941Z,12.60
2023-04-17T14:58:51.425Z,13.60
2023-04-17T15:01:19.881Z,12.65
2023-04-17T15:03:49.370Z,14.27
2023-04-17T15:06:19.924Z,13.93
2023-04-17T15:08:49.935Z,13.13
2023-04-17T15:11:22.486Z,13.40
2023-04-17T15:13:50.611Z,13.07
2023-04-17T15:16:17.309Z,11.85
2023-04-17T15:18:48.573Z,12.98
2023-04-17T15:21:21.223Z,11.57
2023-04-17T15:23:53.239Z,15.57
2023-04-17T15:26:22.358Z,13.90
2023-04-17T15:28:49.112Z,11.90
2023-04-17T15:31:24.699Z,15.48
2023-04-17T15:33:51.672Z,12.15
2023-04-17T15:36:20.351Z,12.80
2023-04-17T15:38:54.480Z,11.32
2023-04-17T15:41:21.189Z,12.27
2023-04-17T15:43:49.805Z,16.02
2023-04-17T15:46:18.507Z,17.40
2023-04-17T15:49:01.241Z,15.18
2023-04-17T15:51:34.628Z,13.95
2023-04-17T15:54:06.680Z,15.55
2023-04-17T15:56:33.275Z,14.68
2023-04-17T15:58:59.947Z,12.88
2023-04-17T16:01:26.654Z,14.70
2023-04-17T16:03:53.469Z,14.82
2023-04-17T16:06:21.839Z,16.42
2023-04-17T16:08:52.447Z,17.40
2023-04-17T16:11:20.411Z,17.38
2023-04-17T16:13:53.011Z,16.13
2023-04-17T16:16:21.535Z,15.88
2023-04-17T16:18:50.055Z,16.35
2023-04-17T16:21:22.329Z,16.45
2023-04-17T16:23:50.954Z,16.67
2023-04-17T16:26:18.792Z,15.05
2023-04-17T16:28:46.749Z,12.30
2023-04-17T16:31:17.159Z,16.52
2023-04-17T16:33:49.266Z,14.50
2023-04-17T16:36:21.597Z,14.63
2023-04-17T16:38:50.841Z,16.88
2023-04-17T16:41:20.056Z,15.05
2023-04-17T16:43:50.848Z,13.57
2023-04-17T16:46:26.201Z,14.65
2023-04-17T16:49:01.877Z,14.20
2023-04-17T16:51:28.353Z,15.40
2023-04-17T16:53:54.917Z,12.80
2023-04-17T16:56:21.405Z,14.27
2023-04-17T16:58:51.698Z,17.10
2023-04-17T17:06:19.846Z,16.23
2023-04-17T17:08:53.061Z,17.00
2023-04-17T17:11:31.836Z,15.98
2023-04-17T17:14:03.658Z,17.10
2023-04-17T17:16:30.287Z,17.35
2023-04-17T17:18:56.918Z,19.35
2023-04-17T17:21:23.599Z,16.38
2023-04-17T17:23:50.259Z,20.88
2023-04-17T17:26:25.458Z,19.88
2023-04-17T17:31:22.777Z,21.30
2023-04-17T17:33:53.199Z,21.58
2023-04-17T17:36:20.770Z,22.25
2023-04-17T17:38:53.429Z,20.45
2023-04-17T17:41:22.994Z,20.65
2023-04-17T17:44:59.085Z,22.10
2023-04-17T17:51:40.299Z,20.98
2023-04-17T17:57:06.179Z,22.92
2023-04-17T18:02:51.319Z,22.30
2023-04-17T18:06:02.760Z,21.38
2023-04-17T18:08:30.727Z,21.55
2023-04-17T18:10:57.274Z,24.65
2023-04-17T18:13:24.207Z,23.45
2023-04-17T18:15:54.067Z,21.73
2023-04-17T18:18:23.473Z,20.80
2023-04-17T18:20:52.979Z,21.63
2023-04-17T18:23:21.446Z,18.17
2023-04-17T18:26:00.798Z,22.05
2023-04-17T18:28:27.628Z,22.08
2023-04-17T18:31:22.699Z,23.75
2023-04-17T18:36:22.971Z,20.90
2023-04-17T18:38:51.673Z,20.55
2023-04-17T18:41:21.213Z,18.52
2023-04-17T18:43:50.041Z,18.10
2023-04-17T18:46:23.113Z,19.08
2023-04-17T18:48:49.858Z,19.80
2023-04-17T18:51:24.821Z,16.30
2023-04-17T18:53:53.846Z,16.52
2023-04-17T18:56:21.891Z,15.35
2023-04-17T18:58:51.151Z,15.90
2023-04-17T19:01:20.869Z,13.70
2023-04-17T19:03:49.535Z,15.80
2023-04-17T19:06:22.348Z,16.45
2023-04-17T19:08:50.821Z,13.57
2023-04-17T19:11:22.716Z,14.35
2023-04-17T19:13:50.935Z,13.05
2023-04-17T19:16:18.886Z,13.05
2023-04-17T19:18:51.455Z,11.57
2023-04-17T19:21:18.109Z,13.30
2023-04-17T19:23:49.109Z,13.38
2023-04-17T19:26:18.015Z,14.27
2023-04-17T19:28:46.322Z,14.13
2023-04-17T19:31:19.641Z,12.30
2023-04-17T19:33:49.479Z,13.00
2023-04-17T19:36:19.006Z,16.92
2023-04-17T19:38:48.522Z,15.52
2023-04-17T19:41:16.851Z,17.00
2023-04-17T19:43:53.929Z,13.75
2023-04-17T19:46:23.291Z,12.98
2023-04-17T19:48:50.381Z,12.88
2023-04-17T19:51:22.766Z,13.68
2023-04-17T19:53:49.411Z,12.00
2023-04-17T19:56:16.457Z,12.57
2023-04-17T19:58:43.028Z,13.05
2023-04-17T20:01:19.516Z,13.48
2023-04-17T20:03:49.373Z,13.25
2023-04-17T20:06:18.442Z,13.00
2023-04-17T20:08:45.074Z,15.40
2023-04-17T20:11:14.998Z,12.73
2023-04-17T20:13:41.840Z,12.60
2023-04-17T20:16:08.776Z,13.27
2023-04-17T20:18:35.640Z,13.15
2023-04-17T20:21:05.159Z,13.43
2023-04-17T20:23:31.697Z,13.18
2023-04-17T20:25:58.208Z,15.60
2023-04-17T20:28:24.786Z,14.25
2023-04-17T20:30:51.281Z,14.88
2023-04-17T20:33:21.092Z,12.93
2023-04-17T20:35:52.314Z,16.40
2023-04-17T20:38:20.514Z,12.48
2023-04-17T20:40:49.281Z,13.30
2023-04-17T20:43:20.610Z,12.57
2023-04-17T20:45:51.487Z,12.50
2023-04-17T20:48:21.863Z,14.48
2023-04-17T20:53:22.981Z,12.07
2023-04-17T20:55:49.650Z,12.55
2023-04-17T20:58:22.696Z,14.93
2023-04-17T21:01:00.831Z,13.15
2023-04-17T21:03:30.952Z,12.85
2023-04-17T21:05:57.691Z,9.70
2023-04-17T21:08:25.694Z,12.38
2023-04-17T21:10:52.229Z,12.82
2023-04-17T21:13:21.514Z,15.02
2023-04-17T21:15:50.000Z,12.77
2023-04-17T21:18:18.537Z,13.45
2023-04-17T21:20:45.318Z,11.77
2023-04-17T21:23:21.362Z,12.18
2023-04-17T21:25:52.159Z,12.32
2023-04-17T21:28:18.758Z,13.35
2023-04-17T21:30:48.172Z,11.63
2023-04-17T21:33:20.895Z,12.70
2023-04-17T21:35:53.650Z,13.93
2023-04-17T21:38:20.189Z,13.07
2023-04-17T21:40:56.310Z,12.40
2023-04-17T21:43:22.844Z,14.35
2023-04-17T21:45:49.593Z,12.30
2023-04-17T21:48:22.635Z,13.27
2023-04-17T21:50:49.244Z,13.07
2023-04-17T21:53:17.681Z,11.88
2023-04-17T21:55:50.851Z,13.07
2023-04-17T21:58:21.196Z,11.20
2023-04-17T22:03:26.215Z,12.38
2023-04-17T22:05:52.800Z,14.80
2023-04-17T22:08:23.955Z,13.48
2023-04-17T22:10:51.822Z,12.55
2023-04-17T22:13:22.785Z,11.48
2023-04-17T22:15:49.453Z,14.65
2023-04-17T22:18:19.162Z,14.02
2023-04-17T22:20:51.734Z,14.52
2023-04-17T22:23:27.177Z,15.98
2023-04-17T22:25:59.333Z,12.73
2023-04-17T22:28:29.884Z,14.05
2023-04-17T22:30:56.640Z,15.00
2023-04-17T22:33:23.184Z,16.63
2023-04-17T22:35:51.506Z,15.68
2023-04-17T22:38:19.933Z,15.15
2023-04-17T22:40:49.412Z,16.63
2023-04-17T22:43:17.934Z,13.18
2023-04-17T22:45:49.589Z,14.98
2023-04-17T22:48:16.332Z,14.48
2023-04-17T22:50:47.403Z,17.25
2023-04-17T22:53:18.516Z,16.42
2023-04-17T22:55:46.972Z,14.70
2023-04-17T22:58:13.956Z,17.92
2023-04-17T23:00:40.523Z,13.35
2023-04-17T23:03:08.685Z,16.70
2023-04-17T23:05:35.256Z,16.50
2023-04-17T23:08:01.788Z,16.55
2023-04-17T23:10:28.382Z,15.88
2023-04-17T23:12:55.086Z,17.60
2023-04-17T23:15:21.976Z,16.25
2023-04-17T23:17:50.397Z,17.88
2023-04-17T23:20:22.141Z,19.02
2023-04-17T23:22:50.779Z,16.17
2023-04-17T23:25:18.562Z,19.02
2023-04-17T23:27:47.703Z,19.52
2023-04-17T23:30:18.933Z,17.08
2023-04-17T23:32:47.319Z,19.85
2023-04-17T23:35:13.986Z,18.95
2023-04-17T23:37:49.385Z,18.05
2023-04-17T23:40:19.212Z,16.13
2023-04-17T23:42:47.803Z,18.88
2023-04-17T23:45:16.543Z,16.48
2023-04-17T23:47:43.193Z,17.05
2023-04-17T23:50:10.484Z,18.35
2023-04-17T23:52:37.226Z,19.42
2023-04-17T23:55:06.217Z,17.75
2023-04-17T23:57:32.762Z,16.88
